sensor_id;sensor_type;location;lat;lon;timestamp;P1;durP1;ratioP1;P2;durP2;ratioP2
53115;SDS011;39010;48.088;7.954;2022-11-06T00:01:06;7.53;;;4.18;;
53115;SDS011;39010;48.088;7.954;2022-11-06T00:03:34;8.02;;;4.13;;
53115;SDS011;39010;48.088;7.954;2022-11-06T00:06:07;9.50;;;4.60;;
53115;SDS011;39010;48.088;7.954;2022-11-06T00:08:54;8.75;;;4.32;;
53115;SDS011;39010;48.088;7.954;2022-11-06T00:11:21;8.30;;;4.53;;
53115;SDS011;39010;48.088;7.954;2022-11-06T00:16:14;10.68;;;4.72;;
53115;SDS011;39010;48.088;7.954;2022-11-06T00:18:41;8.80;;;4.25;;
53115;SDS011;39010;48.088;7.954;2022-11-06T00:21:12;9.00;;;4.13;;
53115;SDS011;39010;48.088;7.954;2022-11-06T00:23:41;9.00;;;4.07;;
53115;SDS011;39010;48.088;7.954;2022-11-06T00:26:13;8.00;;;4.10;;
53115;SDS011;39010;48.088;7.954;2022-11-06T00:28:41;9.35;;;4.30;;
53115;SDS011;39010;48.088;7.954;2022-11-06T00:31:09;10.05;;;4.72;;
53115;SDS011;39010;48.088;7.954;2022-11-06T00:33:38;7.60;;;3.67;;
53115;SDS011;39010;48.088;7.954;2022-11-06T00:36:06;8.05;;;3.70;;
53115;SDS011;39010;48.088;7.954;2022-11-06T00:38:35;9.15;;;3.90;;
53115;SDS011;39010;48.088;7.954;2022-11-06T00:41:02;6.30;;;3.50;;
53115;SDS011;39010;48.088;7.954;2022-11-06T00:43:31;6.88;;;4.03;;
53115;SDS011;39010;48.088;7.954;2022-11-06T00:46:02;7.63;;;3.67;;
53115;SDS011;39010;48.088;7.954;2022-11-06T00:48:32;8.07;;;3.90;;
53115;SDS011;39010;48.088;7.954;2022-11-06T00:51:02;7.30;;;4.15;;
53115;SDS011;39010;48.088;7.954;2022-11-06T00:53:31;7.75;;;4.63;;
53115;SDS011;39010;48.088;7.954;2022-11-06T00:56:05;7.78;;;4.00;;
53115;SDS011;39010;48.088;7.954;2022-11-06T00:58:32;8.07;;;3.70;;
53115;SDS011;39010;48.088;7.954;2022-11-06T01:03:36;7.80;;;3.53;;
53115;SDS011;39010;48.088;7.954;2022-11-06T01:06:08;7.72;;;3.85;;
53115;SDS011;39010;48.088;7.954;2022-11-06T01:08:37;8.07;;;4.53;;
53115;SDS011;39010;48.088;7.954;2022-11-06T01:11:12;5.63;;;3.42;;
53115;SDS011;39010;48.088;7.954;2022-11-06T01:16:20;6.43;;;3.70;;
53115;SDS011;39010;48.088;7.954;2022-11-06T01:18:48;6.82;;;3.40;;
53115;SDS011;39010;48.088;7.954;2022-11-06T01:21:16;8.88;;;3.75;;
53115;SDS011;39010;48.088;7.954;2022-11-06T01:23:45;7.57;;;3.58;;
53115;SDS011;39010;48.088;7.954;2022-11-06T01:26:13;8.15;;;3.53;;
53115;SDS011;39010;48.088;7.954;2022-11-06T01:28:40;7.97;;;3.22;;
53115;SDS011;39010;48.088;7.954;2022-11-06T01:31:11;6.43;;;3.50;;
53115;SDS011;39010;48.088;7.954;2022-11-06T01:33:40;7.95;;;3.60;;
53115;SDS011;39010;48.088;7.954;2022-11-06T01:36:11;8.70;;;3.70;;
53115;SDS011;39010;48.088;7.954;2022-11-06T01:38:43;7.15;;;3.25;;
53115;SDS011;39010;48.088;7.954;2022-11-06T01:41:12;5.97;;;3.35;;
53115;SDS011;39010;48.088;7.954;2022-11-06T01:46:20;7.43;;;3.67;;
53115;SDS011;39010;48.088;7.954;2022-11-06T01:48:52;7.38;;;3.67;;
53115;SDS011;39010;48.088;7.954;2022-11-06T01:51:22;5.57;;;3.30;;
53115;SDS011;39010;48.088;7.954;2022-11-06T01:53:51;5.35;;;3.00;;
53115;SDS011;39010;48.088;7.954;2022-11-06T01:56:19;6.43;;;3.05;;
53115;SDS011;39010;48.088;7.954;2022-11-06T01:58:48;5.53;;;3.10;;
53115;SDS011;39010;48.088;7.954;2022-11-06T02:01:17;6.88;;;3.10;;
53115;SDS011;39010;48.088;7.954;2022-11-06T02:03:49;6.57;;;3.42;;
53115;SDS011;39010;48.088;7.954;2022-11-06T02:06:21;8.88;;;3.25;;
53115;SDS011;39010;48.088;7.954;2022-11-06T02:08:49;5.28;;;3.03;;
53115;SDS011;39010;48.088;7.954;2022-11-06T02:11:16;7.13;;;3.15;;
53115;SDS011;39010;48.088;7.954;2022-11-06T02:13:52;6.65;;;3.08;;
53115;SDS011;39010;48.088;7.954;2022-11-06T02:16:33;5.53;;;3.10;;
53115;SDS011;39010;48.088;7.954;2022-11-06T02:27:28;6.00;;;3.45;;
53115;SDS011;39010;48.088;7.954;2022-11-06T02:30:00;6.32;;;3.15;;
53115;SDS011;39010;48.088;7.954;2022-11-06T02:32:39;7.65;;;3.22;;
53115;SDS011;39010;48.088;7.954;2022-11-06T02:35:18;7.30;;;3.30;;
53115;SDS011;39010;48.088;7.954;2022-11-06T02:37:46;6.57;;;3.40;;
53115;SDS011;39010;48.088;7.954;2022-11-06T02:40:16;5.82;;;3.25;;
53115;SDS011;39010;48.088;7.954;2022-11-06T02:42:49;5.72;;;3.05;;
53115;SDS011;39010;48.088;7.954;2022-11-06T02:45:19;7.45;;;2.92;;
53115;SDS011;39010;48.088;7.954;2022-11-06T02:47:48;7.13;;;2.90;;
53115;SDS011;39010;48.088;7.954;2022-11-06T02:50:28;8.68;;;2.90;;
53115;SDS011;39010;48.088;7.954;2022-11-06T02:52:59;5.53;;;3.00;;
53115;SDS011;39010;48.088;7.954;2022-11-06T02:55:33;6.90;;;3.00;;
53115;SDS011;39010;48.088;7.954;2022-11-06T02:58:07;7.53;;;3.22;;
53115;SDS011;39010;48.088;7.954;2022-11-06T03:00:39;4.60;;;2.40;;
53115;SDS011;39010;48.088;7.954;2022-11-06T03:03:10;5.93;;;2.70;;
53115;SDS011;39010;48.088;7.954;2022-11-06T03:08:38;4.90;;;2.53;;
53115;SDS011;39010;48.088;7.954;2022-11-06T03:16:30;5.50;;;2.78;;
53115;SDS011;39010;48.088;7.954;2022-11-06T03:19:06;6.13;;;2.50;;
53115;SDS011;39010;48.088;7.954;2022-11-06T03:21:49;5.00;;;2.63;;
53115;SDS011;39010;48.088;7.954;2022-11-06T03:24:20;6.20;;;2.70;;
53115;SDS011;39010;48.088;7.954;2022-11-06T03:27:01;4.80;;;2.70;;
53115;SDS011;39010;48.088;7.954;2022-11-06T03:29:42;8.27;;;3.15;;
53115;SDS011;39010;48.088;7.954;2022-11-06T03:34:52;6.28;;;2.80;;
53115;SDS011;39010;48.088;7.954;2022-11-06T03:37:25;4.53;;;2.60;;
53115;SDS011;39010;48.088;7.954;2022-11-06T03:40:00;5.22;;;2.50;;
53115;SDS011;39010;48.088;7.954;2022-11-06T03:42:31;5.25;;;2.60;;
53115;SDS011;39010;48.088;7.954;2022-11-06T03:45:02;5.55;;;2.90;;
53115;SDS011;39010;48.088;7.954;2022-11-06T03:50:05;5.22;;;2.83;;
53115;SDS011;39010;48.088;7.954;2022-11-06T03:52:34;7.18;;;3.00;;
53115;SDS011;39010;48.088;7.954;2022-11-06T03:55:27;6.07;;;2.67;;
53115;SDS011;39010;48.088;7.954;2022-11-06T03:58:09;8.13;;;2.67;;
53115;SDS011;39010;48.088;7.954;2022-11-06T04:00:40;4.47;;;2.40;;
53115;SDS011;39010;48.088;7.954;2022-11-06T04:03:13;7.78;;;2.92;;
53115;SDS011;39010;48.088;7.954;2022-11-06T04:05:59;6.00;;;3.08;;
53115;SDS011;39010;48.088;7.954;2022-11-06T04:08:34;6.95;;;3.17;;
53115;SDS011;39010;48.088;7.954;2022-11-06T04:11:21;8.40;;;3.10;;
53115;SDS011;39010;48.088;7.954;2022-11-06T04:14:09;4.95;;;2.70;;
53115;SDS011;39010;48.088;7.954;2022-11-06T04:16:42;6.35;;;2.70;;
53115;SDS011;39010;48.088;7.954;2022-11-06T04:19:14;6.53;;;2.60;;
53115;SDS011;39010;48.088;7.954;2022-11-06T04:30:24;6.20;;;2.50;;
53115;SDS011;39010;48.088;7.954;2022-11-06T04:33:01;5.63;;;2.60;;
53115;SDS011;39010;48.088;7.954;2022-11-06T04:36:01;4.68;;;2.33;;
53115;SDS011;39010;48.088;7.954;2022-11-06T04:44:27;8.98;;;2.70;;
53115;SDS011;39010;48.088;7.954;2022-11-06T04:47:03;5.65;;;2.45;;
53115;SDS011;39010;48.088;7.954;2022-11-06T04:49:33;5.30;;;2.55;;
53115;SDS011;39010;48.088;7.954;2022-11-06T04:52:02;5.25;;;2.63;;
53115;SDS011;39010;48.088;7.954;2022-11-06T04:54:33;5.70;;;2.70;;
53115;SDS011;39010;48.088;7.954;2022-11-06T04:57:01;6.18;;;2.75;;
53115;SDS011;39010;48.088;7.954;2022-11-06T04:59:29;7.28;;;2.65;;
53115;SDS011;39010;48.088;7.954;2022-11-06T05:01:59;6.30;;;2.40;;
53115;SDS011;39010;48.088;7.954;2022-11-06T05:04:25;6.82;;;2.70;;
53115;SDS011;39010;48.088;7.954;2022-11-06T05:06:52;7.30;;;2.42;;
53115;SDS011;39010;48.088;7.954;2022-11-06T05:09:18;6.32;;;2.95;;
53115;SDS011;39010;48.088;7.954;2022-11-06T05:14:11;4.50;;;2.35;;
53115;SDS011;39010;48.088;7.954;2022-11-06T05:16:38;4.82;;;2.45;;
53115;SDS011;39010;48.088;7.954;2022-11-06T05:19:04;3.92;;;2.45;;
53115;SDS011;39010;48.088;7.954;2022-11-06T05:24:16;6.30;;;2.70;;
53115;SDS011;39010;48.088;7.954;2022-11-06T05:26:42;8.43;;;2.65;;
53115;SDS011;39010;48.088;7.954;2022-11-06T05:29:09;3.60;;;2.33;;
53115;SDS011;39010;48.088;7.954;2022-11-06T05:31:37;4.18;;;2.50;;
53115;SDS011;39010;48.088;7.954;2022-11-06T05:34:03;4.68;;;2.40;;
53115;SDS011;39010;48.088;7.954;2022-11-06T05:36:30;6.18;;;2.90;;
53115;SDS011;39010;48.088;7.954;2022-11-06T05:38:56;4.70;;;2.50;;
53115;SDS011;39010;48.088;7.954;2022-11-06T05:43:49;5.75;;;2.72;;
53115;SDS011;39010;48.088;7.954;2022-11-06T05:46:16;5.00;;;2.47;;
53115;SDS011;39010;48.088;7.954;2022-11-06T05:49:02;5.45;;;2.60;;
53115;SDS011;39010;48.088;7.954;2022-11-06T05:51:29;6.05;;;2.53;;
53115;SDS011;39010;48.088;7.954;2022-11-06T05:53:55;7.80;;;2.67;;
53115;SDS011;39010;48.088;7.954;2022-11-06T05:56:21;5.85;;;2.80;;
53115;SDS011;39010;48.088;7.954;2022-11-06T05:58:48;5.38;;;2.50;;
53115;SDS011;39010;48.088;7.954;2022-11-06T06:01:15;5.82;;;2.25;;
53115;SDS011;39010;48.088;7.954;2022-11-06T06:06:07;7.22;;;2.33;;
53115;SDS011;39010;48.088;7.954;2022-11-06T06:08:34;5.07;;;2.38;;
53115;SDS011;39010;48.088;7.954;2022-11-06T06:11:04;6.28;;;2.80;;
53115;SDS011;39010;48.088;7.954;2022-11-06T06:13:33;5.57;;;2.65;;
53115;SDS011;39010;48.088;7.954;2022-11-06T06:16:01;5.07;;;2.30;;
53115;SDS011;39010;48.088;7.954;2022-11-06T06:18:28;5.25;;;2.58;;
53115;SDS011;39010;48.088;7.954;2022-11-06T06:20:58;8.55;;;2.90;;
53115;SDS011;39010;48.088;7.954;2022-11-06T06:23:24;5.78;;;3.00;;
53115;SDS011;39010;48.088;7.954;2022-11-06T06:25:51;6.00;;;2.92;;
53115;SDS011;39010;48.088;7.954;2022-11-06T06:28:17;6.38;;;2.47;;
53115;SDS011;39010;48.088;7.954;2022-11-06T06:30:44;5.65;;;2.92;;
53115;SDS011;39010;48.088;7.954;2022-11-06T06:35:36;4.25;;;2.47;;
53115;SDS011;39010;48.088;7.954;2022-11-06T06:38:03;4.57;;;2.25;;
53115;SDS011;39010;48.088;7.954;2022-11-06T06:40:29;5.13;;;2.53;;
53115;SDS011;39010;48.088;7.954;2022-11-06T06:42:56;5.35;;;2.85;;
53115;SDS011;39010;48.088;7.954;2022-11-06T06:45:23;5.93;;;3.13;;
53115;SDS011;39010;48.088;7.954;2022-11-06T06:47:50;7.05;;;2.80;;
53115;SDS011;39010;48.088;7.954;2022-11-06T06:52:43;5.50;;;2.70;;
53115;SDS011;39010;48.088;7.954;2022-11-06T06:55:10;5.38;;;2.80;;
53115;SDS011;39010;48.088;7.954;2022-11-06T06:57:37;6.75;;;3.00;;
53115;SDS011;39010;48.088;7.954;2022-11-06T07:00:03;7.28;;;2.90;;
53115;SDS011;39010;48.088;7.954;2022-11-06T07:02:31;6.05;;;2.58;;
53115;SDS011;39010;48.088;7.954;2022-11-06T07:04:58;5.32;;;2.63;;
53115;SDS011;39010;48.088;7.954;2022-11-06T07:07:24;9.40;;;3.13;;
53115;SDS011;39010;48.088;7.954;2022-11-06T07:09:50;5.07;;;2.40;;
53115;SDS011;39010;48.088;7.954;2022-11-06T07:14:45;6.55;;;2.22;;
53115;SDS011;39010;48.088;7.954;2022-11-06T07:19:38;7.07;;;2.47;;
53115;SDS011;39010;48.088;7.954;2022-11-06T07:22:04;5.70;;;3.22;;
53115;SDS011;39010;48.088;7.954;2022-11-06T07:24:31;6.30;;;3.40;;
53115;SDS011;39010;48.088;7.954;2022-11-06T07:26:57;7.40;;;4.45;;
53115;SDS011;39010;48.088;7.954;2022-11-06T07:29:24;9.45;;;5.82;;
53115;SDS011;39010;48.088;7.954;2022-11-06T07:31:50;10.02;;;5.55;;
53115;SDS011;39010;48.088;7.954;2022-11-06T07:34:16;7.03;;;4.13;;
53115;SDS011;39010;48.088;7.954;2022-11-06T07:36:43;8.63;;;5.50;;
53115;SDS011;39010;48.088;7.954;2022-11-06T07:39:09;10.43;;;5.82;;
53115;SDS011;39010;48.088;7.954;2022-11-06T07:41:36;7.72;;;3.85;;
53115;SDS011;39010;48.088;7.954;2022-11-06T07:44:03;5.50;;;2.78;;
53115;SDS011;39010;48.088;7.954;2022-11-06T17:13:42;16.48;;;8.50;;
53115;SDS011;39010;48.088;7.954;2022-11-06T17:16:12;13.75;;;7.88;;
53115;SDS011;39010;48.088;7.954;2022-11-06T17:18:40;10.77;;;6.53;;
53115;SDS011;39010;48.088;7.954;2022-11-06T17:21:11;8.65;;;5.53;;
53115;SDS011;39010;48.088;7.954;2022-11-06T17:23:38;7.78;;;5.13;;
53115;SDS011;39010;48.088;7.954;2022-11-06T17:28:44;7.85;;;5.57;;
53115;SDS011;39010;48.088;7.954;2022-11-06T17:33:39;5.38;;;2.30;;
53115;SDS011;39010;48.088;7.954;2022-11-06T17:36:06;5.35;;;2.97;;
53115;SDS011;39010;48.088;7.954;2022-11-06T17:38:40;8.32;;;3.40;;
53115;SDS011;39010;48.088;7.954;2022-11-06T17:41:06;11.00;;;6.25;;
53115;SDS011;39010;48.088;7.954;2022-11-06T17:46:00;8.68;;;4.70;;
53115;SDS011;39010;48.088;7.954;2022-11-06T17:48:27;8.23;;;5.00;;
53115;SDS011;39010;48.088;7.954;2022-11-06T17:50:54;7.40;;;4.60;;
53115;SDS011;39010;48.088;7.954;2022-11-06T17:53:39;9.93;;;5.13;;
53115;SDS011;39010;48.088;7.954;2022-11-06T17:58:32;8.73;;;4.53;;
53115;SDS011;39010;48.088;7.954;2022-11-06T18:01:03;7.75;;;3.88;;
53115;SDS011;39010;48.088;7.954;2022-11-06T18:03:32;7.53;;;3.75;;
53115;SDS011;39010;48.088;7.954;2022-11-06T18:06:02;7.65;;;3.88;;
53115;SDS011;39010;48.088;7.954;2022-11-06T18:08:29;8.50;;;3.97;;
53115;SDS011;39010;48.088;7.954;2022-11-06T18:10:56;7.38;;;3.83;;
53115;SDS011;39010;48.088;7.954;2022-11-06T18:13:23;7.05;;;3.70;;
53115;SDS011;39010;48.088;7.954;2022-11-06T18:15:50;7.90;;;4.15;;
53115;SDS011;39010;48.088;7.954;2022-11-06T18:18:18;6.38;;;3.50;;
53115;SDS011;39010;48.088;7.954;2022-11-06T18:20:46;8.20;;;4.40;;
53115;SDS011;39010;48.088;7.954;2022-11-06T18:23:12;9.57;;;3.50;;
53115;SDS011;39010;48.088;7.954;2022-11-06T18:25:41;6.38;;;3.35;;
53115;SDS011;39010;48.088;7.954;2022-11-06T18:28:09;4.65;;;2.72;;
53115;SDS011;39010;48.088;7.954;2022-11-06T18:30:36;10.80;;;5.60;;
53115;SDS011;39010;48.088;7.954;2022-11-06T18:33:04;4.10;;;2.00;;
53115;SDS011;39010;48.088;7.954;2022-11-06T18:35:31;3.17;;;1.50;;
53115;SDS011;39010;48.088;7.954;2022-11-06T18:40:24;6.55;;;3.10;;
53115;SDS011;39010;48.088;7.954;2022-11-06T18:42:51;5.30;;;2.15;;
53115;SDS011;39010;48.088;7.954;2022-11-06T18:45:20;2.90;;;1.58;;
53115;SDS011;39010;48.088;7.954;2022-11-06T18:48:04;4.90;;;1.80;;
53115;SDS011;39010;48.088;7.954;2022-11-06T18:50:33;5.78;;;1.60;;
53115;SDS011;39010;48.088;7.954;2022-11-06T18:53:01;1.95;;;1.00;;
53115;SDS011;39010;48.088;7.954;2022-11-06T18:55:28;2.08;;;1.40;;
53115;SDS011;39010;48.088;7.954;2022-11-06T18:57:56;2.20;;;1.30;;
53115;SDS011;39010;48.088;7.954;2022-11-06T19:00:23;2.30;;;1.40;;
53115;SDS011;39010;48.088;7.954;2022-11-06T19:02:49;3.72;;;1.65;;
53115;SDS011;39010;48.088;7.954;2022-11-06T19:05:17;3.13;;;1.50;;
53115;SDS011;39010;48.088;7.954;2022-11-06T19:07:44;2.88;;;2.10;;
53115;SDS011;39010;48.088;7.954;2022-11-06T19:10:18;3.40;;;1.58;;
53115;SDS011;39010;48.088;7.954;2022-11-06T19:12:45;1.45;;;1.10;;
53115;SDS011;39010;48.088;7.954;2022-11-06T19:15:11;2.70;;;1.65;;
53115;SDS011;39010;48.088;7.954;2022-11-06T19:17:38;2.63;;;1.35;;
53115;SDS011;39010;48.088;7.954;2022-11-06T19:20:04;3.72;;;1.08;;
53115;SDS011;39010;48.088;7.954;2022-11-06T19:22:37;2.42;;;1.45;;
53115;SDS011;39010;48.088;7.954;2022-11-06T19:25:03;3.67;;;1.38;;
53115;SDS011;39010;48.088;7.954;2022-11-06T19:27:30;3.53;;;1.70;;
53115;SDS011;39010;48.088;7.954;2022-11-06T19:29:57;2.67;;;1.20;;
53115;SDS011;39010;48.088;7.954;2022-11-06T19:32:24;2.15;;;1.30;;
53115;SDS011;39010;48.088;7.954;2022-11-06T19:34:51;2.38;;;1.50;;
53115;SDS011;39010;48.088;7.954;2022-11-06T19:39:44;2.33;;;1.42;;
53115;SDS011;39010;48.088;7.954;2022-11-06T19:42:10;2.90;;;1.30;;
53115;SDS011;39010;48.088;7.954;2022-11-06T19:44:37;2.50;;;1.45;;
53115;SDS011;39010;48.088;7.954;2022-11-06T19:47:03;2.17;;;1.33;;
53115;SDS011;39010;48.088;7.954;2022-11-06T19:49:30;3.05;;;1.58;;
53115;SDS011;39010;48.088;7.954;2022-11-06T19:51:57;1.73;;;1.10;;
53115;SDS011;39010;48.088;7.954;2022-11-06T19:54:43;3.43;;;1.30;;
53115;SDS011;39010;48.088;7.954;2022-11-06T19:57:10;1.80;;;1.13;;
53115;SDS011;39010;48.088;7.954;2022-11-06T19:59:55;2.38;;;1.30;;
53115;SDS011;39010;48.088;7.954;2022-11-06T20:02:22;2.75;;;1.25;;
53115;SDS011;39010;48.088;7.954;2022-11-06T20:04:49;3.13;;;1.40;;
53115;SDS011;39010;48.088;7.954;2022-11-06T20:07:15;2.70;;;1.17;;
53115;SDS011;39010;48.088;7.954;2022-11-06T20:09:42;1.90;;;1.27;;
53115;SDS011;39010;48.088;7.954;2022-11-06T20:12:09;2.60;;;1.10;;
53115;SDS011;39010;48.088;7.954;2022-11-06T20:14:40;2.95;;;1.15;;
53115;SDS011;39010;48.088;7.954;2022-11-06T20:17:07;3.65;;;1.20;;
53115;SDS011;39010;48.088;7.954;2022-11-06T20:19:34;2.45;;;1.35;;
53115;SDS011;39010;48.088;7.954;2022-11-06T20:24:28;2.88;;;1.02;;
53115;SDS011;39010;48.088;7.954;2022-11-06T20:29:22;1.70;;;1.25;;
53115;SDS011;39010;48.088;7.954;2022-11-06T20:31:48;2.40;;;1.20;;
53115;SDS011;39010;48.088;7.954;2022-11-06T20:36:41;2.97;;;1.40;;
53115;SDS011;39010;48.088;7.954;2022-11-06T20:39:08;3.30;;;1.33;;
53115;SDS011;39010;48.088;7.954;2022-11-06T20:41:35;1.95;;;1.20;;
53115;SDS011;39010;48.088;7.954;2022-11-06T20:44:01;2.35;;;1.27;;
53115;SDS011;39010;48.088;7.954;2022-11-06T20:46:28;4.47;;;1.52;;
53115;SDS011;39010;48.088;7.954;2022-11-06T20:48:54;2.08;;;1.45;;
53115;SDS011;39010;48.088;7.954;2022-11-06T20:51:25;2.60;;;1.20;;
53115;SDS011;39010;48.088;7.954;2022-11-06T20:53:52;2.92;;;1.20;;
53115;SDS011;39010;48.088;7.954;2022-11-06T20:56:20;2.72;;;1.48;;
53115;SDS011;39010;48.088;7.954;2022-11-06T20:58:49;2.65;;;1.38;;
53115;SDS011;39010;48.088;7.954;2022-11-06T21:01:22;2.33;;;1.40;;
53115;SDS011;39010;48.088;7.954;2022-11-06T21:03:52;3.75;;;1.35;;
53115;SDS011;39010;48.088;7.954;2022-11-06T21:06:20;1.90;;;1.27;;
53115;SDS011;39010;48.088;7.954;2022-11-06T21:08:47;2.35;;;1.30;;
53115;SDS011;39010;48.088;7.954;2022-11-06T21:11:16;1.95;;;1.30;;
53115;SDS011;39010;48.088;7.954;2022-11-06T21:13:44;3.05;;;1.40;;
53115;SDS011;39010;48.088;7.954;2022-11-06T21:16:17;4.32;;;1.45;;
53115;SDS011;39010;48.088;7.954;2022-11-06T21:18:46;2.47;;;1.27;;
53115;SDS011;39010;48.088;7.954;2022-11-06T21:21:14;3.33;;;1.42;;
53115;SDS011;39010;48.088;7.954;2022-11-06T21:23:42;2.92;;;1.50;;
53115;SDS011;39010;48.088;7.954;2022-11-06T21:26:10;2.83;;;1.75;;
53115;SDS011;39010;48.088;7.954;2022-11-06T21:28:39;2.35;;;1.17;;
53115;SDS011;39010;48.088;7.954;2022-11-06T21:31:10;3.28;;;1.63;;
53115;SDS011;39010;48.088;7.954;2022-11-06T21:33:39;1.77;;;1.23;;
53115;SDS011;39010;48.088;7.954;2022-11-06T21:36:08;4.10;;;1.80;;
53115;SDS011;39010;48.088;7.954;2022-11-06T21:38:36;3.10;;;1.60;;
53115;SDS011;39010;48.088;7.954;2022-11-06T21:41:07;3.78;;;1.73;;
53115;SDS011;39010;48.088;7.954;2022-11-06T21:43:35;5.68;;;1.45;;
53115;SDS011;39010;48.088;7.954;2022-11-06T21:46:02;2.80;;;1.55;;
53115;SDS011;39010;48.088;7.954;2022-11-06T21:48:30;3.67;;;1.80;;
53115;SDS011;39010;48.088;7.954;2022-11-06T21:51:30;2.95;;;1.83;;
53115;SDS011;39010;48.088;7.954;2022-11-06T21:53:58;3.67;;;1.63;;
53115;SDS011;39010;48.088;7.954;2022-11-06T21:56:45;4.40;;;1.70;;
53115;SDS011;39010;48.088;7.954;2022-11-06T21:59:13;2.65;;;1.50;;
53115;SDS011;39010;48.088;7.954;2022-11-06T22:01:41;3.88;;;1.70;;
53115;SDS011;39010;48.088;7.954;2022-11-06T22:04:08;3.80;;;1.92;;
53115;SDS011;39010;48.088;7.954;2022-11-06T22:06:37;2.25;;;1.52;;
53115;SDS011;39010;48.088;7.954;2022-11-06T22:09:06;2.90;;;1.77;;
53115;SDS011;39010;48.088;7.954;2022-11-06T22:11:34;3.75;;;1.80;;
53115;SDS011;39010;48.088;7.954;2022-11-06T22:14:04;4.45;;;1.95;;
53115;SDS011;39010;48.088;7.954;2022-11-06T22:16:36;3.28;;;1.60;;
53115;SDS011;39010;48.088;7.954;2022-11-06T22:19:04;6.07;;;1.80;;
53115;SDS011;39010;48.088;7.954;2022-11-06T22:21:33;3.58;;;1.77;;
53115;SDS011;39010;48.088;7.954;2022-11-06T22:24:01;3.33;;;1.67;;
53115;SDS011;39010;48.088;7.954;2022-11-06T22:26:31;3.28;;;1.65;;
53115;SDS011;39010;48.088;7.954;2022-11-06T22:29:16;3.80;;;1.55;;
53115;SDS011;39010;48.088;7.954;2022-11-06T22:31:43;4.18;;;1.60;;
53115;SDS011;39010;48.088;7.954;2022-11-06T22:34:10;5.00;;;1.92;;
53115;SDS011;39010;48.088;7.954;2022-11-06T22:36:38;2.83;;;1.63;;
53115;SDS011;39010;48.088;7.954;2022-11-06T22:39:05;4.43;;;1.75;;
53115;SDS011;39010;48.088;7.954;2022-11-06T22:41:34;5.00;;;2.30;;
53115;SDS011;39010;48.088;7.954;2022-11-06T22:44:00;2.88;;;1.63;;
53115;SDS011;39010;48.088;7.954;2022-11-06T22:46:27;2.80;;;1.60;;
53115;SDS011;39010;48.088;7.954;2022-11-06T22:48:55;3.97;;;1.90;;
53115;SDS011;39010;48.088;7.954;2022-11-06T22:51:22;3.55;;;1.63;;
53115;SDS011;39010;48.088;7.954;2022-11-06T22:53:51;3.08;;;1.42;;
53115;SDS011;39010;48.088;7.954;2022-11-06T22:56:19;3.40;;;1.40;;
53115;SDS011;39010;48.088;7.954;2022-11-06T22:58:53;2.60;;;1.35;;
53115;SDS011;39010;48.088;7.954;2022-11-06T23:01:21;2.83;;;1.90;;
53115;SDS011;39010;48.088;7.954;2022-11-06T23:03:49;3.70;;;1.90;;
53115;SDS011;39010;48.088;7.954;2022-11-06T23:06:15;4.60;;;2.15;;
53115;SDS011;39010;48.088;7.954;2022-11-06T23:08:42;6.32;;;2.40;;
53115;SDS011;39010;48.088;7.954;2022-11-06T23:11:12;3.67;;;2.20;;
53115;SDS011;39010;48.088;7.954;2022-11-06T23:13:39;6.15;;;2.67;;
53115;SDS011;39010;48.088;7.954;2022-11-06T23:16:07;6.85;;;2.40;;
53115;SDS011;39010;48.088;7.954;2022-11-06T23:19:14;4.15;;;2.33;;
53115;SDS011;39010;48.088;7.954;2022-11-06T23:21:42;4.45;;;1.70;;
53115;SDS011;39010;48.088;7.954;2022-11-06T23:24:09;4.47;;;2.08;;
53115;SDS011;39010;48.088;7.954;2022-11-06T23:26:36;5.55;;;3.33;;
53115;SDS011;39010;48.088;7.954;2022-11-06T23:31:29;5.03;;;2.60;;
53115;SDS011;39010;48.088;7.954;2022-11-06T23:33:55;3.25;;;2.70;;
53115;SDS011;39010;48.088;7.954;2022-11-06T23:38:51;6.15;;;3.03;;
53115;SDS011;39010;48.088;7.954;2022-11-06T23:41:18;4.25;;;2.10;;
53115;SDS011;39010;48.088;7.954;2022-11-06T23:44:03;3.75;;;2.40;;
53115;SDS011;39010;48.088;7.954;2022-11-06T23:46:30;4.75;;;2.33;;
53115;SDS011;39010;48.088;7.954;2022-11-06T23:48:58;4.97;;;2.25;;
53115;SDS011;39010;48.088;7.954;2022-11-06T23:51:25;4.82;;;2.30;;
53115;SDS011;39010;48.088;7.954;2022-11-06T23:53:52;3.25;;;1.50;;
53115;SDS011;39010;48.088;7.954;2022-11-06T23:56:19;3.42;;;1.90;;
